createdAt,value
2018-01-27T00:01:29.128Z,63.13
2018-01-27T00:03:57.456Z,64.97
2018-01-27T00:06:26.574Z,58.77
2018-01-27T00:08:54.910Z,61.60
2018-01-27T00:11:23.275Z,66.13
2018-01-27T00:13:51.618Z,65.13
2018-01-27T00:16:19.958Z,67.80
2018-01-27T00:18:48.396Z,69.03
2018-01-27T00:21:16.776Z,53.03
2018-01-27T00:23:45.101Z,56.73
2018-01-27T00:26:14.211Z,57.97
2018-01-27T00:28:42.599Z,52.57
2018-01-27T00:31:10.939Z,60.17
2018-01-27T00:33:40.052Z,58.77
2018-01-27T00:36:09.195Z,57.60
2018-01-27T00:38:37.579Z,54.13
2018-01-27T00:41:05.907Z,50.93
2018-01-27T00:43:35.016Z,57.80
2018-01-27T00:46:04.236Z,55.07
2018-01-27T00:48:32.593Z,51.83
2018-01-27T00:51:01.000Z,48.07
2018-01-27T00:53:29.363Z,52.93
2018-01-27T00:55:57.696Z,43.30
2018-01-27T00:58:26.041Z,41.97
2018-01-27T01:00:54.379Z,47.30
2018-01-27T01:03:23.592Z,47.50
2018-01-27T01:05:51.983Z,39.67
2018-01-27T01:08:20.442Z,40.67
2018-01-27T01:10:49.560Z,48.13
2018-01-27T01:13:17.909Z,44.33
2018-01-27T01:15:46.243Z,44.83
2018-01-27T01:18:14.592Z,44.20
2018-01-27T01:20:42.973Z,49.37
2018-01-27T01:23:12.099Z,46.20
2018-01-27T01:25:40.441Z,43.23
2018-01-27T01:28:08.782Z,46.73
2018-01-27T01:30:37.209Z,47.10
2018-01-27T01:33:05.694Z,49.43
2018-01-27T01:35:34.040Z,47.33
2018-01-27T01:38:03.279Z,52.27
2018-01-27T01:40:31.613Z,47.80
2018-01-27T01:43:05.712Z,56.13
2018-01-27T01:45:34.053Z,50.50
2018-01-27T01:48:02.381Z,47.07
2018-01-27T01:50:30.739Z,51.90
2018-01-27T01:52:59.089Z,54.30
2018-01-27T01:55:27.451Z,59.83
2018-01-27T01:57:55.976Z,59.83
2018-01-27T02:00:24.330Z,51.00
2018-01-27T02:02:52.663Z,58.67
2018-01-27T02:05:21.828Z,52.23
2018-01-27T02:07:50.178Z,58.40
2018-01-27T02:10:18.514Z,54.13
2018-01-27T02:12:47.647Z,64.13
2018-01-27T02:15:15.987Z,57.87
2018-01-27T02:17:44.316Z,61.67
2018-01-27T02:20:12.688Z,63.57
2018-01-27T02:22:41.031Z,61.03
2018-01-27T02:25:10.172Z,69.07
2018-01-27T02:27:38.548Z,61.13
2018-01-27T02:30:07.051Z,60.90
2018-01-27T02:32:35.411Z,59.97
2018-01-27T02:35:03.735Z,63.90
2018-01-27T02:37:32.889Z,62.30
2018-01-27T02:40:01.654Z,56.00
2018-01-27T02:42:30.750Z,61.67
2018-01-27T02:44:59.093Z,62.20
2018-01-27T02:47:27.449Z,63.50
2018-01-27T02:49:55.799Z,60.30
2018-01-27T02:52:24.130Z,60.13
2018-01-27T02:54:53.254Z,56.33
2018-01-27T02:57:21.579Z,50.97
2018-01-27T02:59:49.961Z,55.90
2018-01-27T03:02:18.498Z,54.23
2018-01-27T03:04:46.871Z,54.00
2018-01-27T03:07:15.237Z,53.30
2018-01-27T03:09:43.564Z,54.63
2018-01-27T03:12:11.911Z,55.23
2018-01-27T03:14:40.254Z,58.87
2018-01-27T03:17:08.732Z,55.47
2018-01-27T03:19:37.094Z,51.50
2018-01-27T03:22:05.558Z,63.47
2018-01-27T03:24:33.910Z,54.93
2018-01-27T03:27:03.065Z,63.73
2018-01-27T03:29:31.420Z,59.57
2018-01-27T03:31:59.888Z,56.10
2018-01-27T03:34:28.239Z,58.63
2018-01-27T03:36:57.361Z,50.57
2018-01-27T03:39:25.939Z,53.33
2018-01-27T03:41:54.327Z,44.20
2018-01-27T03:44:22.712Z,54.20
2018-01-27T03:46:51.079Z,54.43
2018-01-27T03:49:19.420Z,52.20
2018-01-27T03:51:47.839Z,49.33
2018-01-27T03:54:16.412Z,50.13
2018-01-27T03:56:44.766Z,49.33
2018-01-27T03:59:13.884Z,52.87
2018-01-27T04:01:42.240Z,54.53
2018-01-27T04:04:10.759Z,47.30
2018-01-27T04:06:39.131Z,46.80
2018-01-27T04:09:07.474Z,44.80
2018-01-27T04:11:36.584Z,46.60
2018-01-27T04:14:05.707Z,49.50
2018-01-27T04:16:34.047Z,51.30
2018-01-27T04:19:03.215Z,44.63
2018-01-27T04:21:31.577Z,45.43
2018-01-27T04:24:00.039Z,58.13
2018-01-27T04:26:28.425Z,60.73
2018-01-27T04:28:56.766Z,43.70
2018-01-27T04:31:25.126Z,49.27
2018-01-27T04:33:53.459Z,50.33
2018-01-27T04:36:21.814Z,52.57
2018-01-27T04:38:50.159Z,55.03
2018-01-27T04:41:18.487Z,54.40
2018-01-27T04:43:46.853Z,52.17
2018-01-27T04:46:15.232Z,55.17
2018-01-27T04:48:44.350Z,62.80
2018-01-27T04:51:12.715Z,54.83
2018-01-27T04:53:41.178Z,58.87
2018-01-27T04:56:10.285Z,58.13
2018-01-27T04:58:38.636Z,58.40
2018-01-27T05:01:07.071Z,62.07
2018-01-27T05:03:35.416Z,53.83
2018-01-27T05:06:04.520Z,58.20
2018-01-27T05:08:32.914Z,64.27
2018-01-27T05:11:01.271Z,67.73
2018-01-27T05:13:29.608Z,61.87
2018-01-27T05:15:57.952Z,60.77
2018-01-27T05:18:26.464Z,69.27
2018-01-27T05:20:54.803Z,62.63
2018-01-27T05:23:23.139Z,66.93
2018-01-27T05:25:51.480Z,64.70
2018-01-27T05:28:19.833Z,64.63
2018-01-27T05:30:48.196Z,71.07
2018-01-27T05:33:17.311Z,67.70
2018-01-27T05:35:45.662Z,69.70
2018-01-27T05:38:14.795Z,69.70
2018-01-27T05:40:43.892Z,75.27
2018-01-27T05:43:12.231Z,67.93
2018-01-27T05:45:40.588Z,70.73
2018-01-27T05:48:08.919Z,63.47
2018-01-27T05:50:37.260Z,69.70
2018-01-27T05:53:05.708Z,70.27
2018-01-27T05:55:34.082Z,73.37
2018-01-27T05:58:02.427Z,77.93
2018-01-27T06:00:30.767Z,79.00
2018-01-27T06:02:59.124Z,79.37
2018-01-27T06:05:27.478Z,81.10
2018-01-27T06:07:55.879Z,78.67
2018-01-27T06:10:24.228Z,80.33
2018-01-27T06:12:52.561Z,80.57
2018-01-27T06:15:20.960Z,75.67
2018-01-27T06:17:49.295Z,71.53
2018-01-27T06:20:17.653Z,67.43
2018-01-27T06:22:46.027Z,65.77
2018-01-27T06:25:14.379Z,72.77
2018-01-27T06:27:42.811Z,67.37
2018-01-27T06:30:11.152Z,66.67
2018-01-27T06:32:40.288Z,60.33
2018-01-27T06:35:08.618Z,63.03
2018-01-27T06:37:37.747Z,70.00
2018-01-27T06:40:06.090Z,71.43
2018-01-27T06:42:35.835Z,70.60
2018-01-27T06:45:04.216Z,69.77
2018-01-27T06:47:32.564Z,63.83
2018-01-27T06:50:01.700Z,69.90
2018-01-27T06:52:30.040Z,68.53
2018-01-27T06:54:59.183Z,69.63
2018-01-27T06:57:27.519Z,67.07
2018-01-27T06:59:56.619Z,65.93
2018-01-27T07:02:24.979Z,68.73
2018-01-27T07:04:54.106Z,65.37
2018-01-27T07:07:22.501Z,69.80
2018-01-27T07:09:50.924Z,76.93
2018-01-27T07:12:19.384Z,62.13
2018-01-27T07:14:47.728Z,65.97
2018-01-27T07:17:16.239Z,60.83
2018-01-27T07:19:44.603Z,65.00
2018-01-27T07:22:12.923Z,65.90
2018-01-27T07:24:41.301Z,63.37
2018-01-27T07:27:09.650Z,64.50
2018-01-27T07:29:38.012Z,61.37
2018-01-27T07:32:06.371Z,70.80
2018-01-27T07:34:35.808Z,61.40
2018-01-27T07:37:04.171Z,67.33
2018-01-27T07:39:32.525Z,62.57
2018-01-27T07:42:01.638Z,63.53
2018-01-27T07:44:30.027Z,61.20
2018-01-27T07:46:58.390Z,59.37
2018-01-27T07:49:27.512Z,61.30
2018-01-27T07:51:55.850Z,65.57
2018-01-27T07:54:24.280Z,58.43
2018-01-27T07:56:52.604Z,58.87
2018-01-27T07:59:21.738Z,61.70
2018-01-27T08:01:50.127Z,66.43
2018-01-27T08:04:18.514Z,72.00
2018-01-27T08:06:46.863Z,68.83
2018-01-27T08:09:15.215Z,66.93
2018-01-27T08:11:43.593Z,61.87
2018-01-27T08:14:11.928Z,64.30
2018-01-27T08:16:40.278Z,60.20
2018-01-27T08:19:08.615Z,67.80
2018-01-27T08:21:37.271Z,68.17
2018-01-27T08:24:05.643Z,64.80
2018-01-27T08:26:34.020Z,67.73
2018-01-27T08:29:02.370Z,61.07
2018-01-27T08:31:31.490Z,67.23
2018-01-27T08:33:59.859Z,63.30
2018-01-27T08:36:28.196Z,62.20
2018-01-27T08:38:56.724Z,58.77
2018-01-27T08:41:25.223Z,61.07
2018-01-27T08:43:53.584Z,56.63
2018-01-27T08:46:21.973Z,61.03
2018-01-27T08:48:50.275Z,59.07
2018-01-27T08:51:18.619Z,60.37
2018-01-27T08:53:47.114Z,56.30
2018-01-27T08:56:15.623Z,60.77
2018-01-27T08:58:43.966Z,58.20
2018-01-27T09:01:12.311Z,58.50
2018-01-27T09:03:41.433Z,58.30
2018-01-27T09:06:09.809Z,55.40
2018-01-27T09:08:38.151Z,55.87
2018-01-27T09:11:06.542Z,54.33
2018-01-27T09:13:34.894Z,53.77
2018-01-27T09:16:03.288Z,57.30
2018-01-27T09:18:31.635Z,52.97
2018-01-27T09:21:00.100Z,49.97
2018-01-27T09:23:28.448Z,53.53
2018-01-27T09:25:57.556Z,52.07
2018-01-27T09:28:25.885Z,52.03
2018-01-27T09:30:54.244Z,49.53
2018-01-27T09:33:22.598Z,53.47
2018-01-27T09:35:50.944Z,53.10
2018-01-27T09:38:19.320Z,50.20
2018-01-27T09:40:47.670Z,50.97
2018-01-27T09:43:16.230Z,63.83
2018-01-27T09:45:44.570Z,51.27
2018-01-27T09:48:12.985Z,54.33
2018-01-27T09:50:41.322Z,46.17
2018-01-27T09:53:10.362Z,57.27
2018-01-27T09:55:38.740Z,51.60
2018-01-27T09:58:07.183Z,59.50
2018-01-27T10:00:36.319Z,53.73
2018-01-27T10:03:04.805Z,53.00
2018-01-27T10:05:33.178Z,55.23
2018-01-27T10:08:01.511Z,51.53
2018-01-27T10:10:30.890Z,56.37
2018-01-27T10:12:59.221Z,55.07
2018-01-27T10:15:27.567Z,57.17
2018-01-27T10:17:55.994Z,57.40
2018-01-27T10:20:24.325Z,56.33
2018-01-27T10:22:52.752Z,54.30
2018-01-27T10:25:21.157Z,55.70
2018-01-27T10:27:49.815Z,52.27
2018-01-27T10:30:18.326Z,56.00
2018-01-27T10:32:46.666Z,51.53
2018-01-27T10:35:15.773Z,54.63
2018-01-27T10:37:44.125Z,53.30
2018-01-27T10:40:13.246Z,51.17
2018-01-27T10:42:41.594Z,58.90
2018-01-27T10:45:09.960Z,58.53
2018-01-27T10:47:38.376Z,59.67
2018-01-27T10:50:07.468Z,65.30
2018-01-27T10:52:36.590Z,59.67
2018-01-27T10:55:04.932Z,59.37
2018-01-27T10:57:34.057Z,59.23
2018-01-27T11:00:02.641Z,60.33
2018-01-27T11:02:31.744Z,65.83
2018-01-27T11:05:00.084Z,68.93
2018-01-27T11:07:29.179Z,66.20
2018-01-27T11:09:58.403Z,61.10
2018-01-27T11:12:26.749Z,65.13
2018-01-27T11:14:55.101Z,61.33
2018-01-27T11:17:23.458Z,61.67
2018-01-27T11:19:51.832Z,64.37
2018-01-27T11:22:20.181Z,62.70
2018-01-27T11:24:49.279Z,70.50
2018-01-27T11:27:18.399Z,68.23
2018-01-27T11:29:46.733Z,63.03
2018-01-27T11:32:15.090Z,65.37
2018-01-27T11:34:43.424Z,67.77
2018-01-27T11:37:11.783Z,63.50
2018-01-27T11:39:40.155Z,61.57
2018-01-27T11:42:09.260Z,66.53
2018-01-27T11:44:38.385Z,60.57
2018-01-27T11:47:07.084Z,55.93
2018-01-27T11:49:35.507Z,55.77
2018-01-27T11:52:03.858Z,51.20
2018-01-27T11:54:32.243Z,50.77
2018-01-27T11:57:00.613Z,49.53
2018-01-27T11:59:29.005Z,54.60
2018-01-27T12:01:57.384Z,55.13
2018-01-27T12:04:25.744Z,55.53
2018-01-27T12:06:54.121Z,57.87
2018-01-27T12:09:22.484Z,55.87
2018-01-27T12:11:50.878Z,49.80
2018-01-27T12:14:19.246Z,48.47
2018-01-27T12:16:47.606Z,45.77
2018-01-27T12:19:15.994Z,46.83
2018-01-27T12:21:44.365Z,49.30
2018-01-27T12:24:12.746Z,45.63
2018-01-27T12:26:41.100Z,45.43
2018-01-27T12:29:09.467Z,44.57
2018-01-27T12:31:37.815Z,41.50
2018-01-27T12:34:06.178Z,41.53
2018-01-27T12:36:34.633Z,40.00
2018-01-27T12:39:02.972Z,31.17
2018-01-27T12:41:31.478Z,32.47
2018-01-27T12:43:59.841Z,25.30
2018-01-27T12:46:28.239Z,31.33
2018-01-27T12:48:56.586Z,31.03
2018-01-27T12:51:25.065Z,32.17
2018-01-27T12:53:53.433Z,32.13
2018-01-27T12:56:21.797Z,33.23
2018-01-27T12:58:50.161Z,33.80
2018-01-27T13:01:18.592Z,36.70
2018-01-27T13:03:46.979Z,36.23
2018-01-27T13:06:15.335Z,38.63
2018-01-27T13:08:43.688Z,40.70
2018-01-27T13:11:12.069Z,46.37
2018-01-27T13:13:40.413Z,46.97
2018-01-27T13:16:08.800Z,47.97
2018-01-27T13:18:37.171Z,45.37
2018-01-27T13:21:05.583Z,43.40
2018-01-27T13:23:33.932Z,48.93
2018-01-27T13:26:02.286Z,47.47
2018-01-27T13:28:31.467Z,43.90
2018-01-27T13:30:59.845Z,44.27
2018-01-27T13:33:28.212Z,44.13
2018-01-27T13:35:56.570Z,41.03
2018-01-27T13:38:24.956Z,48.73
2018-01-27T13:40:53.358Z,43.87
2018-01-27T13:43:21.692Z,42.43
2018-01-27T13:45:50.069Z,39.73
2018-01-27T13:48:18.459Z,38.57
2018-01-27T13:50:46.860Z,39.40
2018-01-27T13:53:15.229Z,41.13
2018-01-27T13:55:43.640Z,40.60
2018-01-27T13:58:12.099Z,39.47
2018-01-27T14:00:40.448Z,40.17
2018-01-27T14:03:08.818Z,36.73
2018-01-27T14:05:37.172Z,43.73
2018-01-27T14:08:05.561Z,37.87
2018-01-27T14:10:33.910Z,38.87
2018-01-27T14:13:02.296Z,38.03
2018-01-27T14:15:30.671Z,39.90
2018-01-27T14:17:59.018Z,39.27
2018-01-27T14:20:27.402Z,42.40
2018-01-27T14:22:55.774Z,44.57
2018-01-27T14:25:24.147Z,47.33
2018-01-27T14:27:52.536Z,44.57
2018-01-27T14:30:20.912Z,39.13
2018-01-27T14:32:49.341Z,39.00
2018-01-27T14:35:17.700Z,42.23
2018-01-27T14:37:46.087Z,43.33
2018-01-27T14:40:14.479Z,44.73
2018-01-27T14:42:42.840Z,44.80
2018-01-27T14:45:11.171Z,44.83
2018-01-27T14:47:39.566Z,43.87
2018-01-27T14:50:07.947Z,38.87
2018-01-27T14:52:36.292Z,40.37
2018-01-27T14:55:04.669Z,45.83
2018-01-27T14:57:33.105Z,42.40
2018-01-27T15:00:01.449Z,43.40
2018-01-27T15:02:30.575Z,41.67
2018-01-27T15:04:59.548Z,40.50
2018-01-27T15:07:27.895Z,42.20
2018-01-27T15:09:56.219Z,43.70
2018-01-27T15:12:24.562Z,37.67
2018-01-27T15:14:53.714Z,36.63
2018-01-27T15:17:22.060Z,41.47
2018-01-27T15:19:51.172Z,36.77
2018-01-27T15:22:19.539Z,35.67
2018-01-27T15:24:47.871Z,34.83
2018-01-27T15:27:16.276Z,37.03
2018-01-27T15:29:45.413Z,38.30
2018-01-27T15:32:13.744Z,39.73
2018-01-27T15:34:42.287Z,40.03
2018-01-27T15:37:10.599Z,38.43
2018-01-27T15:39:38.956Z,40.50
2018-01-27T15:42:07.317Z,40.67
2018-01-27T15:44:35.635Z,43.70
2018-01-27T15:47:03.983Z,43.13
2018-01-27T15:49:32.426Z,41.63
2018-01-27T15:52:01.544Z,41.57
2018-01-27T15:54:29.888Z,49.13
2018-01-27T15:56:59.098Z,43.60
2018-01-27T15:59:27.445Z,50.20
2018-01-27T16:01:55.789Z,48.57
2018-01-27T16:04:24.196Z,47.83
2018-01-27T16:06:52.538Z,42.53
2018-01-27T16:09:20.927Z,47.47
2018-01-27T16:11:49.267Z,45.83
2018-01-27T16:14:18.403Z,52.10
2018-01-27T16:16:46.743Z,49.30
2018-01-27T16:19:15.833Z,48.63
2018-01-27T16:21:44.954Z,45.80
2018-01-27T16:24:13.307Z,50.37
2018-01-27T16:26:42.435Z,45.17
2018-01-27T16:29:10.777Z,43.37
2018-01-27T16:31:39.142Z,43.50
2018-01-27T16:34:07.474Z,47.23
2018-01-27T16:36:35.829Z,47.77
2018-01-27T16:39:04.939Z,48.90
2018-01-27T16:41:33.285Z,47.80
2018-01-27T16:44:01.763Z,53.70
2018-01-27T16:46:30.092Z,47.20
2018-01-27T16:48:58.481Z,44.93
2018-01-27T16:51:26.811Z,49.13
2018-01-27T16:53:55.919Z,50.80
2018-01-27T16:56:24.370Z,45.87
2018-01-27T16:58:52.713Z,54.10
2018-01-27T17:01:21.071Z,52.50
2018-01-27T17:03:49.420Z,52.40
2018-01-27T17:06:18.539Z,48.67
2018-01-27T17:08:46.924Z,48.20
2018-01-27T17:11:15.295Z,48.50
2018-01-27T17:13:43.904Z,46.17
2018-01-27T17:16:15.049Z,47.00
2018-01-27T17:18:43.426Z,50.70
2018-01-27T17:21:11.800Z,46.10
2018-01-27T17:23:40.162Z,48.90
2018-01-27T17:26:08.557Z,47.93
2018-01-27T17:28:36.942Z,44.40
2018-01-27T17:31:05.286Z,43.97
2018-01-27T17:33:34.395Z,42.93
2018-01-27T17:36:02.751Z,45.53
2018-01-27T17:38:31.865Z,46.30
2018-01-27T17:41:00.965Z,44.57
2018-01-27T17:43:30.029Z,40.97
2018-01-27T17:45:58.475Z,44.10
2018-01-27T17:48:26.808Z,43.10
2018-01-27T17:50:55.912Z,36.53
2018-01-27T17:53:25.024Z,38.83
2018-01-27T17:55:53.413Z,41.60
2018-01-27T17:58:21.769Z,42.53
2018-01-27T18:00:50.863Z,43.50
2018-01-27T18:03:19.226Z,45.33
2018-01-27T18:05:48.352Z,38.87
2018-01-27T18:08:16.696Z,39.03
2018-01-27T18:10:45.334Z,39.73
2018-01-27T18:13:13.650Z,37.97
2018-01-27T18:15:42.020Z,35.63
2018-01-27T18:18:11.084Z,34.10
2018-01-27T18:20:39.448Z,36.40
2018-01-27T18:23:07.798Z,38.73
2018-01-27T18:25:36.946Z,34.17
2018-01-27T18:28:05.278Z,37.87
2018-01-27T18:30:34.364Z,35.20
2018-01-27T18:33:03.557Z,33.13
2018-01-27T18:35:32.527Z,32.13
2018-01-27T18:38:00.889Z,31.30
2018-01-27T18:40:29.372Z,31.47
2018-01-27T18:42:57.808Z,29.07
2018-01-27T18:45:26.911Z,28.27
2018-01-27T18:47:55.259Z,25.70
2018-01-27T18:50:24.472Z,26.23
2018-01-27T18:52:52.848Z,26.10
2018-01-27T18:55:21.226Z,27.73
2018-01-27T18:57:49.960Z,24.67
2018-01-27T19:00:18.347Z,24.83
2018-01-27T19:02:46.796Z,26.33
2018-01-27T19:05:15.914Z,23.07
2018-01-27T19:07:44.271Z,22.17
2018-01-27T19:10:13.303Z,26.30
2018-01-27T19:12:41.667Z,24.03
2018-01-27T19:15:10.024Z,25.07
2018-01-27T19:17:38.362Z,23.43
2018-01-27T19:20:06.723Z,23.47
2018-01-27T19:22:35.181Z,24.27
2018-01-27T19:25:03.527Z,21.17
2018-01-27T19:27:32.634Z,24.77
2018-01-27T19:30:01.818Z,22.37
2018-01-27T19:32:30.354Z,25.23
2018-01-27T19:34:58.841Z,24.67
2018-01-27T19:37:27.166Z,24.43
2018-01-27T19:39:56.781Z,27.53
2018-01-27T19:42:26.020Z,23.37
2018-01-27T19:44:54.375Z,26.03
2018-01-27T19:47:22.756Z,23.87
2018-01-27T19:49:51.155Z,24.47
2018-01-27T19:52:19.715Z,26.30
2018-01-27T19:54:48.133Z,23.50
2018-01-27T19:57:16.468Z,24.00
2018-01-27T19:59:44.865Z,22.40
2018-01-27T20:02:13.223Z,27.13
2018-01-27T20:04:42.342Z,24.50
2018-01-27T20:07:10.691Z,24.07
2018-01-27T20:09:39.103Z,29.43
2018-01-27T20:12:07.461Z,23.97
2018-01-27T20:14:36.559Z,22.57
2018-01-27T20:17:05.064Z,23.00
2018-01-27T20:19:33.446Z,21.53
2018-01-27T20:22:01.815Z,21.13
2018-01-27T20:24:30.300Z,19.13
2018-01-27T20:26:58.634Z,23.47
2018-01-27T20:29:27.037Z,21.47
2018-01-27T20:31:55.452Z,21.00
2018-01-27T20:34:23.800Z,22.03
2018-01-27T20:36:52.585Z,20.40
2018-01-27T20:39:20.992Z,19.67
2018-01-27T20:41:49.364Z,19.67
2018-01-27T20:44:17.751Z,18.87
2018-01-27T20:46:46.124Z,20.40
2018-01-27T20:49:14.461Z,17.93
2018-01-27T20:51:42.799Z,16.70
2018-01-27T20:54:11.139Z,19.37
2018-01-27T20:56:39.496Z,18.37
2018-01-27T20:59:07.843Z,25.70
2018-01-27T21:01:36.308Z,18.57
2018-01-27T21:04:04.627Z,18.07
2018-01-27T21:06:32.992Z,19.03
2018-01-27T21:09:01.344Z,18.17
2018-01-27T21:11:29.700Z,13.70
2018-01-27T21:13:58.047Z,18.40
2018-01-27T21:16:27.150Z,16.73
2018-01-27T21:18:55.676Z,15.27
2018-01-27T21:21:24.076Z,15.20
2018-01-27T21:23:52.416Z,16.33
2018-01-27T21:26:20.760Z,14.23
2018-01-27T21:28:49.094Z,15.07
2018-01-27T21:31:17.456Z,13.23
2018-01-27T21:33:45.988Z,14.47
2018-01-27T21:36:16.122Z,13.57
2018-01-27T21:38:45.172Z,14.73
2018-01-27T21:41:13.548Z,15.63
2018-01-27T21:43:41.919Z,13.23
2018-01-27T21:46:10.441Z,12.77
2018-01-27T21:48:39.142Z,14.20
2018-01-27T21:51:08.274Z,14.90
2018-01-27T21:53:37.347Z,10.90
2018-01-27T21:56:06.475Z,11.93
2018-01-27T21:58:34.823Z,12.07
2018-01-27T22:01:03.973Z,13.23
2018-01-27T22:03:31.845Z,13.43
2018-01-27T22:06:00.247Z,11.20
2018-01-27T22:08:28.618Z,14.07
2018-01-27T22:10:57.032Z,11.37
2018-01-27T22:13:26.143Z,11.10
2018-01-27T22:15:54.528Z,12.07
2018-01-27T22:18:23.039Z,13.37
2018-01-27T22:20:51.395Z,12.20
2018-01-27T22:30:06.589Z,12.13
2018-01-27T22:32:34.909Z,11.93
2018-01-27T22:35:03.282Z,12.40
2018-01-27T22:37:31.657Z,12.50
2018-01-27T22:40:00.016Z,8.83
2018-01-27T22:42:29.395Z,10.27
2018-01-27T22:44:58.487Z,9.33
2018-01-27T22:47:26.836Z,11.83
2018-01-27T22:49:55.162Z,7.07
2018-01-27T22:52:24.278Z,7.90
2018-01-27T22:54:52.611Z,7.87
2018-01-27T22:57:21.243Z,9.63
2018-01-27T22:59:50.197Z,8.90
2018-01-27T23:02:18.580Z,9.90
2018-01-27T23:04:46.908Z,7.63
2018-01-27T23:07:15.387Z,7.50
2018-01-27T23:09:43.727Z,7.97
2018-01-27T23:12:12.820Z,6.37
2018-01-27T23:14:41.940Z,8.00
2018-01-27T23:17:11.167Z,7.90
2018-01-27T23:19:39.497Z,7.30
2018-01-27T23:22:08.588Z,7.37
2018-01-27T23:24:37.690Z,7.90
2018-01-27T23:27:06.793Z,8.67
2018-01-27T23:29:35.877Z,7.67
2018-01-27T23:32:04.434Z,7.33
2018-01-27T23:34:32.761Z,11.13
2018-01-27T23:37:01.161Z,9.43
2018-01-27T23:39:29.500Z,8.67
2018-01-27T23:41:58.625Z,7.50
2018-01-27T23:44:26.973Z,8.60
2018-01-27T23:46:56.061Z,7.17
2018-01-27T23:49:25.294Z,7.00
2018-01-27T23:51:53.607Z,7.93
2018-01-27T23:54:21.922Z,6.10
2018-01-27T23:56:51.038Z,9.17
2018-01-27T23:59:20.212Z,4.73
